Terminal Aerodrome Forecast
Issued by NWS

Home | Current Version | Previous Version | Text Only | Print | Product List | Glossary On
Versions: 1 2 3 4 5 6 7 8 9 10 11 12
000
FTUS43 KMPX 050520
TAFRWF
TAF
KRWF 050520Z 0506/0606 17007KT 6SM HZ SKC
     FM051200 18012KT P6SM FEW250
      TEMPO 0512/0516 6SM -TSRA BKN050CB
     FM051600 18014G23KT P6SM SCT250
     FM060300 17012G21KT 5SM -TSRA SCT050CB BKN150=

USA.gov is the U.S. government's official web portal to all federal, state and local government web resources and services.